LGKR/CFU METAR and TAF weather

Enter ICAO airport designator
Station Type Date Time Source
LGKR METAR 2023/01/29 18:20 UTC NOAA

LGKR 291820Z 00000KT 9999 FEW018 08/06 Q1016 NOSIG


Station Type Date Time Source
LGKR Decoded METAR 2023/01/29 18:20 UTC NOAA

Kerkyra Airport , Greece (LGKR) 39-37N 019-55E 4M
Jan 29, 2023 - 01:20 PM EST / 2023.01.29 1820 UTC
Wind: Calm:0
Visibility: greater than 7 mile(s):0
Sky conditions: mostly clear
Temperature: 46 F (8 C)
Dew Point: 42 F (6 C)
Relative Humidity: 87%
Pressure (altimeter): 30.00 in. Hg (1016 hPa)
ob: LGKR 291820Z 00000KT 9999 FEW018 08/06 Q1016 NOSIG
cycle: 18

Station Type Date Time Source
LGKR TAF 2023/01/29 18:12 UTC NOAA

TAF LGKR 291700Z 2918/3018 VRB03KT 9999 FEW018
BECMG 3011/3013 31012KT

Example: see airport list